aviador You're here:

KCKV Decoded Metar

CLARKSVILLE in TN, USA
Report Time2017-05-30 10:52:00
UTC Time2017-05-30 11:10:29
Flight Rules vfr VFR
Wind200° at 03 kt
W.Decomp.*RWY 17: 2.6 kt HW 1.5 kt RCW
RWY 23: 2.6 kt HW 1.5 kt LCW
W.Rank200° ranks 2
Current wind is below 200° avg. (7.8)
Visibility9999 m
Phenomena:N/A
Clouds:N/A
Expected CloudBase > 800 ft AGL from Temp-Dew spread
CeilingNone
Temp18°C (ISA +4)
Dew Point16°C (88% RH)
QNH1018 hPa
Density Alt1,096 ft
Elevation541 ft
Report Wrong Elevation
Raw Report
KCKV 301052Z AUTO 20003KT 10SM CLR 18/16 A3006 RMK AO2 SLP174
T01780161=

Extra information for KCKV:More info

Metar Taf Metar & Taf Last 4 Metars F.Rules Stats Wind Profile Meteogram Temp Stats Airport Information Weather charts Add Link Nearby VenuesMetar ALERT Operation Metar Decoded Social comments

AIRNAV info for KCKV